createdAt,value
2023-03-26T00:02:21.001Z,48.91
2023-03-26T00:04:53.432Z,48.96
2023-03-26T00:07:23.883Z,49.12
2023-03-26T00:09:51.856Z,49.12
2023-03-26T00:12:20.367Z,49.53
2023-03-26T00:14:48.906Z,49.14
2023-03-26T00:17:21.351Z,49.09
2023-03-26T00:19:50.010Z,48.92
2023-03-26T00:22:17.997Z,49.59
2023-03-26T00:24:49.450Z,49.22
2023-03-26T00:27:21.525Z,49.42
2023-03-26T00:29:50.995Z,49.80
2023-03-26T00:32:18.709Z,50.19
2023-03-26T00:34:48.161Z,50.58
2023-03-26T00:37:15.968Z,49.89
2023-03-26T00:39:50.896Z,50.65
2023-03-26T00:42:19.271Z,50.02
2023-03-26T00:44:47.742Z,50.68
2023-03-26T00:47:16.124Z,50.38
2023-03-26T00:49:46.899Z,50.96
2023-03-26T00:52:21.046Z,51.05
2023-03-26T00:54:52.395Z,50.62
2023-03-26T00:57:34.556Z,50.50
2023-03-26T01:00:15.902Z,50.27
2023-03-26T01:02:45.250Z,51.59
2023-03-26T01:05:35.139Z,50.88
2023-03-26T01:08:16.890Z,50.31
2023-03-26T01:10:50.891Z,50.41
2023-03-26T01:13:23.920Z,50.77
2023-03-26T01:15:53.139Z,50.51
2023-03-26T01:18:26.441Z,51.24
2023-03-26T01:20:58.575Z,50.62
2023-03-26T01:23:41.671Z,50.41
2023-03-26T01:26:40.969Z,50.65
2023-03-26T01:29:37.622Z,50.73
2023-03-26T01:32:19.280Z,49.58
2023-03-26T01:35:00.497Z,49.81
2023-03-26T01:37:47.139Z,50.04
2023-03-26T01:40:19.114Z,48.99
2023-03-26T01:42:54.189Z,49.31
2023-03-26T01:45:25.731Z,49.01
2023-03-26T01:47:55.082Z,49.50
2023-03-26T01:50:22.684Z,49.06
2023-03-26T01:52:51.879Z,49.36
2023-03-26T01:55:22.529Z,49.12
2023-03-26T01:58:09.949Z,49.05
2023-03-26T02:01:02.900Z,48.96
2023-03-26T02:03:33.838Z,48.80
2023-03-26T02:06:16.664Z,49.28
2023-03-26T02:08:54.178Z,49.71
2023-03-26T02:11:23.500Z,48.54
2023-03-26T02:13:51.865Z,48.93
2023-03-26T02:16:21.047Z,49.23
2023-03-26T02:18:51.554Z,49.73
2023-03-26T02:21:26.194Z,49.00
2023-03-26T02:24:14.673Z,48.15
2023-03-26T02:26:43.007Z,48.94
2023-03-26T02:29:14.102Z,48.87
2023-03-26T02:31:43.659Z,48.57
2023-03-26T02:34:11.588Z,47.76
2023-03-26T02:36:43.038Z,48.50
2023-03-26T02:39:11.963Z,49.46
2023-03-26T02:41:40.040Z,49.80
2023-03-26T02:44:09.213Z,49.89
2023-03-26T02:46:40.925Z,49.65
2023-03-26T02:49:10.497Z,50.01
2023-03-26T02:51:39.479Z,49.78
2023-03-26T02:54:07.325Z,49.71
2023-03-26T02:56:35.706Z,50.61
2023-03-26T02:59:11.044Z,50.62
2023-03-26T03:01:47.901Z,50.69
2023-03-26T03:04:18.021Z,51.01
2023-03-26T03:06:45.964Z,50.84
2023-03-26T03:09:14.129Z,51.21
2023-03-26T03:11:46.555Z,51.37
2023-03-26T03:14:14.474Z,51.09
2023-03-26T03:16:42.808Z,51.10
2023-03-26T03:19:11.862Z,51.26
2023-03-26T03:21:40.991Z,51.66
2023-03-26T03:24:09.415Z,51.58
2023-03-26T03:26:37.770Z,51.40
2023-03-26T03:29:12.976Z,51.80
2023-03-26T03:31:41.437Z,52.21
2023-03-26T03:34:11.561Z,52.28
2023-03-26T03:36:40.170Z,52.31
2023-03-26T03:39:09.012Z,52.31
2023-03-26T03:41:37.130Z,53.10
2023-03-26T03:44:06.469Z,53.46
2023-03-26T03:46:35.708Z,53.23
2023-03-26T03:49:04.376Z,52.70
2023-03-26T03:51:32.413Z,52.47
2023-03-26T03:54:02.001Z,52.79
2023-03-26T03:56:31.402Z,53.12
2023-03-26T03:59:04.767Z,53.12
2023-03-26T04:01:36.509Z,53.32
2023-03-26T04:04:11.286Z,53.37
2023-03-26T04:06:39.573Z,53.38
2023-03-26T04:09:10.066Z,54.07
2023-03-26T04:11:39.557Z,54.18
2023-03-26T04:14:10.569Z,54.02
2023-03-26T04:16:39.094Z,53.55
2023-03-26T04:19:07.046Z,54.19
2023-03-26T04:21:37.853Z,53.68
2023-03-26T04:24:07.462Z,54.39
2023-03-26T04:26:38.557Z,54.36
2023-03-26T04:29:12.015Z,54.63
2023-03-26T04:31:41.133Z,54.82
2023-03-26T04:34:24.309Z,54.30
2023-03-26T04:36:56.256Z,55.08
2023-03-26T04:39:29.334Z,55.52
2023-03-26T04:42:15.846Z,55.33
2023-03-26T04:44:44.484Z,55.66
2023-03-26T04:47:13.622Z,55.79
2023-03-26T04:49:42.006Z,56.32
2023-03-26T04:52:12.447Z,56.17
2023-03-26T04:54:46.335Z,54.92
2023-03-26T04:57:24.325Z,55.97
2023-03-26T04:59:53.256Z,55.62
2023-03-26T05:02:21.364Z,55.61
2023-03-26T05:04:50.966Z,56.55
2023-03-26T05:07:22.544Z,56.85
2023-03-26T05:10:04.955Z,57.07
2023-03-26T05:12:35.170Z,57.00
2023-03-26T05:15:05.998Z,56.96
2023-03-26T05:17:35.182Z,56.78
2023-03-26T05:20:05.209Z,56.63
2023-03-26T05:22:33.772Z,55.95
2023-03-26T05:25:08.496Z,56.37
2023-03-26T05:27:37.481Z,56.57
2023-03-26T05:30:07.274Z,56.77
2023-03-26T05:32:37.091Z,56.96
2023-03-26T05:35:20.056Z,56.96
2023-03-26T05:37:51.983Z,56.86
2023-03-26T05:40:21.881Z,56.83
2023-03-26T05:42:51.367Z,56.82
2023-03-26T05:45:22.517Z,57.23
2023-03-26T05:47:55.100Z,56.65
2023-03-26T05:50:34.017Z,56.39
2023-03-26T05:53:02.716Z,56.42
2023-03-26T05:55:37.102Z,56.35
2023-03-26T05:58:13.202Z,55.85
2023-03-26T06:00:55.404Z,55.76
2023-03-26T06:03:25.571Z,56.00
2023-03-26T06:06:00.893Z,56.13
2023-03-26T06:11:08.350Z,55.37
2023-03-26T06:13:37.893Z,54.91
2023-03-26T06:16:26.596Z,54.60
2023-03-26T06:19:08.841Z,53.93
2023-03-26T06:21:45.342Z,52.59
2023-03-26T06:24:20.804Z,51.38
2023-03-26T06:26:50.119Z,51.80
2023-03-26T06:29:22.230Z,51.34
2023-03-26T06:32:12.349Z,50.64
2023-03-26T06:35:01.979Z,50.35
2023-03-26T06:37:31.237Z,50.13
2023-03-26T06:40:00.893Z,50.34
2023-03-26T06:43:08.625Z,49.06
2023-03-26T06:45:35.945Z,47.18
2023-03-26T06:50:49.029Z,46.67
2023-03-26T06:53:19.393Z,45.78
2023-03-26T06:55:54.031Z,45.63
2023-03-26T06:58:25.300Z,45.33
2023-03-26T07:00:59.718Z,45.41
2023-03-26T07:03:55.170Z,44.47
2023-03-26T07:06:39.043Z,44.47
2023-03-26T07:09:10.672Z,44.26
2023-03-26T07:11:41.734Z,45.18
2023-03-26T07:14:13.902Z,46.83
2023-03-26T07:16:51.931Z,47.96
2023-03-26T07:19:30.199Z,48.21
2023-03-26T07:22:02.378Z,47.13
2023-03-26T07:24:36.172Z,46.37
2023-03-26T07:27:37.208Z,47.48
2023-03-26T07:30:30.567Z,47.23
2023-03-26T07:33:54.008Z,46.79
2023-03-26T07:36:38.092Z,47.41
2023-03-26T07:39:25.356Z,47.10
2023-03-26T07:42:24.961Z,45.80
2023-03-26T07:45:35.968Z,46.24
2023-03-26T07:48:13.387Z,45.82
2023-03-26T07:50:49.062Z,46.00
2023-03-26T07:53:30.115Z,46.36
2023-03-26T07:56:18.037Z,48.25
2023-03-26T07:58:59.039Z,47.41
2023-03-26T08:02:12.662Z,46.99
2023-03-26T08:05:21.890Z,45.71
2023-03-26T08:07:56.781Z,47.09
2023-03-26T08:10:51.990Z,46.61
2023-03-26T08:19:34.724Z,45.66
2023-03-26T08:22:13.011Z,45.82
2023-03-26T08:25:17.698Z,44.73
2023-03-26T08:28:12.066Z,42.90
2023-03-26T08:30:47.301Z,42.10
2023-03-26T08:33:20.877Z,42.84
2023-03-26T08:38:27.989Z,40.41
2023-03-26T08:44:20.653Z,41.81
2023-03-26T08:47:17.307Z,41.20
2023-03-26T08:50:21.162Z,40.76
2023-03-26T08:56:14.923Z,39.82
2023-03-26T08:59:08.200Z,39.87
2023-03-26T09:01:39.774Z,39.63
2023-03-26T09:04:11.347Z,39.73
2023-03-26T09:07:10.013Z,39.51
2023-03-26T09:10:19.821Z,40.06
2023-03-26T09:13:06.896Z,38.97
2023-03-26T09:16:14.983Z,39.29
2023-03-26T09:18:54.933Z,39.85
2023-03-26T09:22:24.200Z,39.15
2023-03-26T09:25:18.333Z,38.28
2023-03-26T09:27:49.327Z,37.97
2023-03-26T09:30:46.141Z,37.82
2023-03-26T09:36:24.967Z,38.27
2023-03-26T09:39:22.617Z,38.42
2023-03-26T09:42:10.273Z,39.32
2023-03-26T09:45:09.928Z,38.49
2023-03-26T09:48:06.926Z,37.26
2023-03-26T09:51:04.903Z,37.44
2023-03-26T09:53:50.243Z,37.59
2023-03-26T09:56:32.087Z,36.95
2023-03-26T09:59:29.414Z,37.53
2023-03-26T10:05:20.903Z,37.60
2023-03-26T10:08:05.190Z,38.42
2023-03-26T10:10:52.663Z,39.16
2023-03-26T10:13:33.498Z,39.46
2023-03-26T10:16:36.723Z,44.20
2023-03-26T10:19:30.247Z,49.29
2023-03-26T10:22:06.406Z,47.47
2023-03-26T10:27:44.548Z,49.38
2023-03-26T10:30:14.501Z,47.62
2023-03-26T10:33:12.931Z,48.38
2023-03-26T10:35:57.146Z,47.97
2023-03-26T10:38:47.934Z,47.54
2023-03-26T10:41:30.168Z,47.24
2023-03-26T10:44:26.427Z,46.27
2023-03-26T10:47:20.012Z,44.71
2023-03-26T10:50:22.994Z,46.37
2023-03-26T10:53:26.041Z,50.26
2023-03-26T10:56:27.283Z,48.07
2023-03-26T10:58:58.286Z,46.48
2023-03-26T11:01:44.106Z,47.36
2023-03-26T11:04:41.519Z,48.28
2023-03-26T11:07:28.946Z,47.26
2023-03-26T11:10:12.885Z,47.48
2023-03-26T11:18:48.313Z,49.75
2023-03-26T11:21:47.294Z,51.04
2023-03-26T11:24:41.913Z,50.58
2023-03-26T11:27:28.954Z,48.01
2023-03-26T11:30:16.922Z,48.47
2023-03-26T11:33:03.932Z,51.42
2023-03-26T11:35:40.639Z,47.93
2023-03-26T11:38:40.944Z,45.71
2023-03-26T11:41:16.918Z,44.21
2023-03-26T11:44:12.924Z,44.43
2023-03-26T11:46:51.220Z,44.91
2023-03-26T11:49:26.422Z,46.74
2023-03-26T11:51:56.951Z,42.45
2023-03-26T11:54:24.901Z,41.12
2023-03-26T11:57:05.387Z,39.38
2023-03-26T11:59:56.570Z,40.61
2023-03-26T12:02:25.348Z,41.36
2023-03-26T12:08:19.847Z,39.00
2023-03-26T12:10:59.330Z,38.03
2023-03-26T12:13:29.054Z,35.38
2023-03-26T12:16:13.263Z,32.60
2023-03-26T12:18:46.788Z,29.85
2023-03-26T12:21:29.629Z,28.46
2023-03-26T12:24:10.166Z,29.11
2023-03-26T12:26:46.851Z,27.66
2023-03-26T12:29:21.112Z,27.18
2023-03-26T12:31:57.389Z,28.59
2023-03-26T12:34:37.640Z,28.09
2023-03-26T12:37:07.511Z,27.12
2023-03-26T12:40:10.313Z,27.71
2023-03-26T12:44:47.003Z,27.61
2023-03-26T12:45:43.729Z,27.32
2023-03-26T12:48:16.111Z,29.15
2023-03-26T12:51:11.183Z,30.55
2023-03-26T12:54:01.445Z,30.47
2023-03-26T12:56:38.970Z,30.70
2023-03-26T12:59:49.133Z,29.89
2023-03-26T13:02:31.071Z,30.08
2023-03-26T13:05:48.118Z,30.47
2023-03-26T13:08:41.013Z,30.29
2023-03-26T13:11:58.028Z,30.70
2023-03-26T13:15:02.960Z,30.86
2023-03-26T13:17:37.065Z,30.71
2023-03-26T13:23:12.843Z,29.36
2023-03-26T13:26:06.856Z,29.46
2023-03-26T13:28:52.719Z,29.70
2023-03-26T13:31:30.861Z,28.83
2023-03-26T13:34:30.148Z,29.75
2023-03-26T13:37:01.093Z,28.10
2023-03-26T13:39:53.042Z,27.71
2023-03-26T13:43:02.923Z,27.76
2023-03-26T13:45:49.250Z,26.68
2023-03-26T13:48:23.078Z,27.09
2023-03-26T13:51:01.890Z,26.88
2023-03-26T13:53:47.662Z,27.27
2023-03-26T13:56:19.984Z,27.68
2023-03-26T13:58:54.042Z,27.25
2023-03-26T14:01:35.541Z,28.15
2023-03-26T14:04:19.934Z,28.33
2023-03-26T14:07:01.325Z,28.31
2023-03-26T14:09:51.546Z,27.75
2023-03-26T14:15:40.998Z,26.09
2023-03-26T14:18:34.083Z,26.76
2023-03-26T14:21:34.704Z,26.68
2023-03-26T14:24:16.323Z,26.28
2023-03-26T14:26:46.199Z,26.60
2023-03-26T14:29:23.851Z,26.86
2023-03-26T14:32:30.123Z,26.57
2023-03-26T14:35:41.888Z,26.67
2023-03-26T14:38:54.000Z,26.19
2023-03-26T14:41:33.933Z,25.46
2023-03-26T14:44:28.497Z,25.14
2023-03-26T14:47:15.832Z,24.63
2023-03-26T14:49:55.728Z,25.01
2023-03-26T14:52:42.376Z,25.05
2023-03-26T14:56:13.705Z,25.15
2023-03-26T14:59:05.093Z,24.94
2023-03-26T15:01:49.113Z,24.87
2023-03-26T15:04:49.189Z,25.28
2023-03-26T15:07:34.345Z,25.81
2023-03-26T15:10:15.009Z,26.49
2023-03-26T15:13:34.997Z,26.68
2023-03-26T15:16:28.075Z,26.48
2023-03-26T15:19:35.977Z,26.90
2023-03-26T15:25:11.354Z,26.47
2023-03-26T15:27:52.006Z,26.54
2023-03-26T15:33:28.897Z,27.04
2023-03-26T15:36:21.580Z,26.75
2023-03-26T15:39:34.993Z,26.25
2023-03-26T15:42:12.111Z,26.75
2023-03-26T15:47:43.090Z,26.63
2023-03-26T15:50:48.686Z,26.44
2023-03-26T15:54:01.058Z,27.41
2023-03-26T15:56:49.514Z,27.82
2023-03-26T15:59:53.980Z,28.50
2023-03-26T16:02:34.949Z,28.68
2023-03-26T16:05:22.319Z,28.64
2023-03-26T16:08:03.152Z,28.09
2023-03-26T16:11:02.550Z,28.24
2023-03-26T16:13:38.730Z,27.89
2023-03-26T16:16:16.321Z,29.03
2023-03-26T16:19:21.865Z,28.37
2023-03-26T16:22:01.272Z,27.95
2023-03-26T16:27:32.542Z,27.41
2023-03-26T16:30:09.800Z,28.25
2023-03-26T16:32:50.246Z,29.17
2023-03-26T16:35:54.087Z,29.50
2023-03-26T16:41:34.019Z,29.66
2023-03-26T16:44:14.134Z,29.89
2023-03-26T16:46:54.945Z,30.21
2023-03-26T16:49:31.986Z,29.98
2023-03-26T16:52:19.033Z,29.98
2023-03-26T16:54:52.679Z,30.73
2023-03-26T16:57:41.948Z,30.17
2023-03-26T17:00:17.229Z,30.91
2023-03-26T17:03:25.852Z,30.96
2023-03-26T17:06:45.244Z,30.86
2023-03-26T17:09:24.995Z,31.53
2023-03-26T17:12:19.408Z,31.39
2023-03-26T17:15:16.018Z,31.33
2023-03-26T17:18:03.048Z,31.46
2023-03-26T17:23:43.589Z,31.51
2023-03-26T17:26:23.534Z,32.24
2023-03-26T17:29:09.746Z,31.81
2023-03-26T17:31:48.742Z,32.64
2023-03-26T17:34:40.293Z,32.05
2023-03-26T17:37:28.192Z,32.93
2023-03-26T17:40:27.037Z,32.76
2023-03-26T17:43:11.956Z,32.53
2023-03-26T17:48:29.086Z,33.02
2023-03-26T17:51:04.176Z,32.67
2023-03-26T17:53:38.042Z,33.72
2023-03-26T17:56:16.206Z,33.76
2023-03-26T17:58:56.929Z,33.64
2023-03-26T18:01:46.240Z,34.12
2023-03-26T18:04:32.021Z,33.16
2023-03-26T18:10:36.517Z,32.97
2023-03-26T18:13:28.090Z,33.12
2023-03-26T18:19:00.969Z,32.66
2023-03-26T18:21:40.255Z,33.03
2023-03-26T18:24:21.091Z,33.12
2023-03-26T18:27:12.425Z,32.85
2023-03-26T18:30:02.867Z,33.32
2023-03-26T18:32:42.028Z,33.49
2023-03-26T18:38:00.999Z,34.52
2023-03-26T18:43:35.529Z,34.92
2023-03-26T18:46:09.248Z,35.52
2023-03-26T18:51:11.976Z,35.48
2023-03-26T18:53:55.938Z,35.30
2023-03-26T18:56:37.234Z,34.84
2023-03-26T18:59:38.092Z,35.36
2023-03-26T19:02:18.181Z,34.91
2023-03-26T19:04:56.961Z,35.45
2023-03-26T19:07:39.195Z,35.61
2023-03-26T19:10:27.415Z,36.18
2023-03-26T19:13:09.086Z,36.15
2023-03-26T19:15:36.880Z,36.90
2023-03-26T19:18:14.240Z,38.33
2023-03-26T19:20:45.320Z,38.43
2023-03-26T19:23:25.603Z,38.88
2023-03-26T19:26:02.828Z,39.36
2023-03-26T19:28:41.087Z,39.19
2023-03-26T19:31:21.967Z,39.46
2023-03-26T19:33:58.082Z,39.78
2023-03-26T19:36:37.178Z,40.46
2023-03-26T19:39:27.226Z,41.28
2023-03-26T19:42:16.977Z,40.96
2023-03-26T19:44:52.839Z,40.93
2023-03-26T19:47:43.556Z,40.06
2023-03-26T19:53:16.789Z,36.95
2023-03-26T19:56:07.579Z,36.67
2023-03-26T19:58:47.293Z,37.05
2023-03-26T20:01:32.110Z,36.95
2023-03-26T20:04:05.092Z,36.58
2023-03-26T20:06:44.171Z,36.35
2023-03-26T20:09:24.626Z,36.46
2023-03-26T20:11:58.107Z,36.16
2023-03-26T20:17:14.628Z,35.89
2023-03-26T20:19:48.991Z,36.08
2023-03-26T20:22:26.098Z,35.66
2023-03-26T20:24:55.121Z,35.78
2023-03-26T20:27:30.358Z,35.59
2023-03-26T20:30:05.214Z,35.82
2023-03-26T20:32:36.050Z,35.72
2023-03-26T20:35:35.483Z,35.70
2023-03-26T20:38:17.054Z,35.47
2023-03-26T20:40:49.790Z,35.21
2023-03-26T20:43:20.042Z,34.98
2023-03-26T20:45:52.067Z,35.60
2023-03-26T20:48:27.021Z,35.61
2023-03-26T20:50:55.169Z,35.75
2023-03-26T20:53:25.793Z,35.91
2023-03-26T20:55:55.656Z,35.93
2023-03-26T20:58:30.737Z,36.99
2023-03-26T21:01:03.091Z,37.79
2023-03-26T21:03:32.088Z,38.49
2023-03-26T21:06:05.406Z,38.89
2023-03-26T21:08:34.965Z,39.53
2023-03-26T21:11:08.140Z,39.85
2023-03-26T21:13:58.018Z,40.80
2023-03-26T21:16:28.205Z,40.21
2023-03-26T21:18:57.579Z,38.38
2023-03-26T21:21:48.252Z,38.23
2023-03-26T21:24:22.115Z,38.83
2023-03-26T21:27:33.837Z,39.48
2023-03-26T21:30:16.750Z,44.37
2023-03-26T21:32:46.889Z,46.25
2023-03-26T21:35:17.058Z,50.11
2023-03-26T21:37:48.830Z,49.71
2023-03-26T21:40:21.172Z,50.27
2023-03-26T21:42:53.017Z,50.26
2023-03-26T21:45:21.951Z,50.54
2023-03-26T21:47:52.276Z,50.44
2023-03-26T21:52:57.169Z,51.65
2023-03-26T21:55:25.967Z,52.04
2023-03-26T21:58:28.153Z,51.22
2023-03-26T22:01:19.384Z,50.81
2023-03-26T22:03:48.085Z,51.58
2023-03-26T22:06:27.149Z,52.21
2023-03-26T22:08:55.417Z,52.49
2023-03-26T22:11:25.039Z,52.73
2023-03-26T22:13:57.141Z,54.21
2023-03-26T22:16:27.061Z,54.15
2023-03-26T22:18:58.482Z,54.38
2023-03-26T22:21:28.140Z,56.27
2023-03-26T22:23:55.537Z,58.06
2023-03-26T22:26:24.229Z,59.72
2023-03-26T22:28:53.184Z,59.57
2023-03-26T22:31:26.695Z,59.85
2023-03-26T22:33:59.993Z,61.37
2023-03-26T22:36:28.716Z,60.61
2023-03-26T22:38:57.949Z,60.42
2023-03-26T22:41:25.966Z,59.82
2023-03-26T22:46:31.227Z,59.71
2023-03-26T22:49:00.625Z,61.04
2023-03-26T22:51:31.314Z,60.89
2023-03-26T22:54:03.950Z,61.43
2023-03-26T22:56:32.954Z,61.13
2023-03-26T22:59:00.716Z,61.48
2023-03-26T23:01:30.325Z,61.29
2023-03-26T23:03:59.519Z,61.56
2023-03-26T23:06:27.828Z,61.95
2023-03-26T23:08:57.106Z,61.38
2023-03-26T23:11:25.354Z,62.08
2023-03-26T23:13:56.013Z,62.35
2023-03-26T23:16:23.578Z,63.02
2023-03-26T23:18:52.045Z,63.08
2023-03-26T23:21:21.810Z,62.69
2023-03-26T23:23:54.128Z,63.25
2023-03-26T23:26:22.089Z,63.00
2023-03-26T23:28:51.363Z,62.77
2023-03-26T23:31:19.675Z,62.74
2023-03-26T23:33:47.491Z,63.16
2023-03-26T23:36:18.410Z,63.07
2023-03-26T23:38:48.584Z,63.19
2023-03-26T23:41:28.311Z,63.54
2023-03-26T23:43:56.725Z,63.14
2023-03-26T23:46:30.992Z,63.27
2023-03-26T23:49:00.112Z,63.43
2023-03-26T23:51:30.313Z,64.31
2023-03-26T23:54:00.005Z,64.13
2023-03-26T23:56:29.688Z,64.32
2023-03-26T23:58:58.328Z,63.62
